New Brighton, Minnesota
Current Conditions -  °F | °C
As of 10:45 AM on Sunday 21 Dec 2014 (Local Time) from KANE Reporting Station
Light Snow Light Snow  
Wind Chill: 28°   Ceiling: 400
Heat Index: 36°   Visibility: 1mi
Dew Point: 36°   Wind: 12mph
Humidity: 100%   Direction: 150°SSE
Pressure: 29.85"   Gusts: NA
Location:  45.06°N, 93.19°W
Report Text: KANE 211645Z 15010KT 1 SM -SN OVC004 02/02 A2985
Loading
Personal Weather Stations






























Interactive Weather Map New forecast layout! Learn more

10-Day Weather Forecast

Advertisements
Track Severe Weather on mobile